SBOSBO BDS / LIBR
Speedbird OnlineSpeedbird Online BDS / LIBR

Brindisi – Salento Airport
09:42 35.3°C

Location Brindisi, Italy
Latitude: 40.6576
Longitude: 17.947001
Local Time 09:42 on 18 Jul 2024
UTC +2 hours (Europe/Rome)
Currency £1 equals EUR 1.19
METAR LIBR 180650Z 33013KT CAVOK 30/22 Q1014
TAF TAF LIBR 180500Z 1806/1906 33015KT CAVOK
Weather As Of 18 Jul 2024 09:19
Description Clear sky
Wind 29 km/h from North-West (329°)
Cloud Cover 0%
Precipitation Rain: none, Snow: none
Sunrise 05:32
Sunset 20:16
NOTAM 19 active NOTAM
Rotations During the last 90 days there were
30 flights from LHR
29 flights to LHR
Web Airport Website | Wikipedia
Codes IATA: BDS
ICAO: LIBR
Altitude 14 Meter / 47 Feet
Distance 1,820 KM / 1,131 Miles
from London.
Runways
RunwayLength (m)Surface
051796Asphalt
133048Asphalt
231796Asphalt
313048Asphalt
Radio
TypeDescriptionFrequency
APPBRINDISI APP118.4
APPBRINDISI APP36.365
GNDGND31.355
ILS RWY 32109.5
TWRBRINDISI TWR118.1
Live ATC



Support Speedbird Online

© 2017-2024 Speedbird Online